sensor_id;sensor_type;location;lat;lon;timestamp;P1;durP1;ratioP1;P2;durP2;ratioP2
12900;SDS011;6518;50.930;5.344;2022-09-17T00:01:35;6.17;;;1.50;;
12900;SDS011;6518;50.930;5.344;2022-09-17T00:04:02;6.37;;;1.73;;
12900;SDS011;6518;50.930;5.344;2022-09-17T00:06:31;8.30;;;1.63;;
12900;SDS011;6518;50.930;5.344;2022-09-17T00:08:59;6.13;;;1.83;;
12900;SDS011;6518;50.930;5.344;2022-09-17T00:11:28;7.20;;;1.40;;
12900;SDS011;6518;50.930;5.344;2022-09-17T00:13:56;4.90;;;1.43;;
12900;SDS011;6518;50.930;5.344;2022-09-17T00:16:27;7.40;;;2.00;;
12900;SDS011;6518;50.930;5.344;2022-09-17T00:18:55;4.53;;;1.60;;
12900;SDS011;6518;50.930;5.344;2022-09-17T00:21:22;6.60;;;1.73;;
12900;SDS011;6518;50.930;5.344;2022-09-17T00:23:52;7.03;;;1.77;;
12900;SDS011;6518;50.930;5.344;2022-09-17T00:26:20;7.10;;;1.80;;
12900;SDS011;6518;50.930;5.344;2022-09-17T00:28:48;8.47;;;1.67;;
12900;SDS011;6518;50.930;5.344;2022-09-17T00:31:15;6.60;;;2.07;;
12900;SDS011;6518;50.930;5.344;2022-09-17T00:33:44;4.33;;;1.50;;
12900;SDS011;6518;50.930;5.344;2022-09-17T00:36:11;5.67;;;1.70;;
12900;SDS011;6518;50.930;5.344;2022-09-17T00:38:38;4.03;;;1.60;;
12900;SDS011;6518;50.930;5.344;2022-09-17T00:41:05;8.53;;;1.73;;
12900;SDS011;6518;50.930;5.344;2022-09-17T00:43:34;6.83;;;1.63;;
12900;SDS011;6518;50.930;5.344;2022-09-17T00:46:03;5.77;;;2.00;;
12900;SDS011;6518;50.930;5.344;2022-09-17T00:48:37;5.37;;;1.70;;
12900;SDS011;6518;50.930;5.344;2022-09-17T00:51:06;10.07;;;2.13;;
12900;SDS011;6518;50.930;5.344;2022-09-17T00:53:35;11.37;;;2.43;;
12900;SDS011;6518;50.930;5.344;2022-09-17T00:56:06;6.77;;;1.90;;
12900;SDS011;6518;50.930;5.344;2022-09-17T00:58:38;6.60;;;1.70;;
12900;SDS011;6518;50.930;5.344;2022-09-17T01:01:05;5.03;;;1.63;;
12900;SDS011;6518;50.930;5.344;2022-09-17T01:03:32;6.43;;;1.80;;
12900;SDS011;6518;50.930;5.344;2022-09-17T01:06:01;8.47;;;1.67;;
12900;SDS011;6518;50.930;5.344;2022-09-17T01:08:37;7.27;;;2.30;;
12900;SDS011;6518;50.930;5.344;2022-09-17T01:14:18;6.00;;;1.90;;
12900;SDS011;6518;50.930;5.344;2022-09-17T01:17:03;8.03;;;2.23;;
12900;SDS011;6518;50.930;5.344;2022-09-17T01:19:51;6.70;;;1.70;;
12900;SDS011;6518;50.930;5.344;2022-09-17T01:22:38;8.33;;;1.90;;
12900;SDS011;6518;50.930;5.344;2022-09-17T01:25:19;6.67;;;1.90;;
12900;SDS011;6518;50.930;5.344;2022-09-17T01:30:51;8.50;;;2.10;;
12900;SDS011;6518;50.930;5.344;2022-09-17T01:33:31;7.33;;;1.90;;
12900;SDS011;6518;50.930;5.344;2022-09-17T01:36:11;5.03;;;1.70;;
12900;SDS011;6518;50.930;5.344;2022-09-17T01:38:48;8.40;;;1.90;;
12900;SDS011;6518;50.930;5.344;2022-09-17T01:41:20;8.87;;;2.00;;
12900;SDS011;6518;50.930;5.344;2022-09-17T01:43:57;9.17;;;2.30;;
12900;SDS011;6518;50.930;5.344;2022-09-17T01:46:30;7.20;;;2.00;;
12900;SDS011;6518;50.930;5.344;2022-09-17T01:49:00;6.37;;;2.00;;
12900;SDS011;6518;50.930;5.344;2022-09-17T01:51:30;4.73;;;1.67;;
12900;SDS011;6518;50.930;5.344;2022-09-17T01:54:03;9.40;;;2.20;;
12900;SDS011;6518;50.930;5.344;2022-09-17T01:56:35;7.67;;;1.87;;
12900;SDS011;6518;50.930;5.344;2022-09-17T01:59:06;7.43;;;1.80;;
12900;SDS011;6518;50.930;5.344;2022-09-17T02:01:39;9.67;;;2.30;;
12900;SDS011;6518;50.930;5.344;2022-09-17T02:04:09;7.33;;;2.20;;
12900;SDS011;6518;50.930;5.344;2022-09-17T02:06:44;5.93;;;1.60;;
12900;SDS011;6518;50.930;5.344;2022-09-17T02:09:16;7.73;;;1.70;;
12900;SDS011;6518;50.930;5.344;2022-09-17T02:11:48;8.27;;;2.33;;
12900;SDS011;6518;50.930;5.344;2022-09-17T02:14:19;6.67;;;1.73;;
12900;SDS011;6518;50.930;5.344;2022-09-17T02:16:53;10.00;;;2.33;;
12900;SDS011;6518;50.930;5.344;2022-09-17T02:19:26;8.67;;;2.23;;
12900;SDS011;6518;50.930;5.344;2022-09-17T02:21:56;7.67;;;1.80;;
12900;SDS011;6518;50.930;5.344;2022-09-17T02:24:29;10.53;;;2.47;;
12900;SDS011;6518;50.930;5.344;2022-09-17T02:27:01;6.10;;;1.60;;
12900;SDS011;6518;50.930;5.344;2022-09-17T02:29:33;5.93;;;1.57;;
12900;SDS011;6518;50.930;5.344;2022-09-17T02:32:02;8.03;;;2.00;;
12900;SDS011;6518;50.930;5.344;2022-09-17T02:34:30;6.73;;;2.00;;
12900;SDS011;6518;50.930;5.344;2022-09-17T02:36:57;9.23;;;1.83;;
12900;SDS011;6518;50.930;5.344;2022-09-17T02:39:24;7.43;;;2.07;;
12900;SDS011;6518;50.930;5.344;2022-09-17T02:41:52;10.07;;;2.70;;
12900;SDS011;6518;50.930;5.344;2022-09-17T02:44:27;9.93;;;2.17;;
12900;SDS011;6518;50.930;5.344;2022-09-17T02:47:12;5.73;;;1.80;;
12900;SDS011;6518;50.930;5.344;2022-09-17T02:50:13;7.00;;;1.90;;
12900;SDS011;6518;50.930;5.344;2022-09-17T02:53:02;8.03;;;2.30;;
12900;SDS011;6518;50.930;5.344;2022-09-17T02:55:39;11.47;;;2.37;;
12900;SDS011;6518;50.930;5.344;2022-09-17T02:58:11;12.13;;;2.20;;
12900;SDS011;6518;50.930;5.344;2022-09-17T03:00:46;9.93;;;2.33;;
12900;SDS011;6518;50.930;5.344;2022-09-17T03:03:15;8.47;;;2.20;;
12900;SDS011;6518;50.930;5.344;2022-09-17T03:05:47;7.63;;;1.70;;
12900;SDS011;6518;50.930;5.344;2022-09-17T03:08:15;11.40;;;2.57;;
12900;SDS011;6518;50.930;5.344;2022-09-17T03:10:44;9.37;;;2.10;;
12900;SDS011;6518;50.930;5.344;2022-09-17T03:13:12;8.40;;;2.10;;
12900;SDS011;6518;50.930;5.344;2022-09-17T03:15:40;8.37;;;2.03;;
12900;SDS011;6518;50.930;5.344;2022-09-17T03:18:07;6.50;;;1.83;;
12900;SDS011;6518;50.930;5.344;2022-09-17T03:20:35;6.73;;;2.03;;
12900;SDS011;6518;50.930;5.344;2022-09-17T03:23:02;8.40;;;2.43;;
12900;SDS011;6518;50.930;5.344;2022-09-17T03:25:29;7.53;;;1.93;;
12900;SDS011;6518;50.930;5.344;2022-09-17T03:27:56;7.33;;;2.27;;
12900;SDS011;6518;50.930;5.344;2022-09-17T03:30:23;7.40;;;2.00;;
12900;SDS011;6518;50.930;5.344;2022-09-17T03:32:49;11.67;;;2.07;;
12900;SDS011;6518;50.930;5.344;2022-09-17T03:35:16;7.50;;;1.90;;
12900;SDS011;6518;50.930;5.344;2022-09-17T03:37:44;8.47;;;2.10;;
12900;SDS011;6518;50.930;5.344;2022-09-17T03:40:12;6.30;;;1.63;;
12900;SDS011;6518;50.930;5.344;2022-09-17T03:42:39;10.07;;;2.30;;
12900;SDS011;6518;50.930;5.344;2022-09-17T03:45:06;6.40;;;1.63;;
12900;SDS011;6518;50.930;5.344;2022-09-17T03:47:33;8.33;;;1.93;;
12900;SDS011;6518;50.930;5.344;2022-09-17T03:50:00;11.70;;;2.50;;
12900;SDS011;6518;50.930;5.344;2022-09-17T03:52:27;9.07;;;1.80;;
12900;SDS011;6518;50.930;5.344;2022-09-17T03:54:55;8.47;;;1.97;;
12900;SDS011;6518;50.930;5.344;2022-09-17T03:57:22;7.67;;;1.90;;
12900;SDS011;6518;50.930;5.344;2022-09-17T03:59:49;8.47;;;1.87;;
12900;SDS011;6518;50.930;5.344;2022-09-17T04:02:16;7.67;;;2.00;;
12900;SDS011;6518;50.930;5.344;2022-09-17T04:04:43;6.77;;;1.60;;
12900;SDS011;6518;50.930;5.344;2022-09-17T04:07:09;11.80;;;2.33;;
12900;SDS011;6518;50.930;5.344;2022-09-17T04:09:36;7.77;;;1.80;;
12900;SDS011;6518;50.930;5.344;2022-09-17T04:12:05;7.83;;;2.03;;
12900;SDS011;6518;50.930;5.344;2022-09-17T04:14:32;10.40;;;2.10;;
12900;SDS011;6518;50.930;5.344;2022-09-17T04:16:58;10.17;;;1.87;;
12900;SDS011;6518;50.930;5.344;2022-09-17T04:19:25;8.77;;;2.17;;
12900;SDS011;6518;50.930;5.344;2022-09-17T04:21:52;5.20;;;1.67;;
12900;SDS011;6518;50.930;5.344;2022-09-17T04:24:19;7.30;;;1.80;;
12900;SDS011;6518;50.930;5.344;2022-09-17T04:26:46;8.80;;;1.97;;
12900;SDS011;6518;50.930;5.344;2022-09-17T04:29:14;8.57;;;1.97;;
12900;SDS011;6518;50.930;5.344;2022-09-17T04:31:41;9.80;;;2.00;;
12900;SDS011;6518;50.930;5.344;2022-09-17T04:34:08;9.60;;;2.00;;
12900;SDS011;6518;50.930;5.344;2022-09-17T04:36:35;9.13;;;2.17;;
12900;SDS011;6518;50.930;5.344;2022-09-17T04:39:02;11.13;;;2.47;;
12900;SDS011;6518;50.930;5.344;2022-09-17T04:41:28;10.13;;;1.73;;
12900;SDS011;6518;50.930;5.344;2022-09-17T04:43:55;8.03;;;2.40;;
12900;SDS011;6518;50.930;5.344;2022-09-17T04:46:24;8.57;;;2.40;;
12900;SDS011;6518;50.930;5.344;2022-09-17T04:48:50;8.83;;;1.97;;
12900;SDS011;6518;50.930;5.344;2022-09-17T04:51:17;9.27;;;2.23;;
12900;SDS011;6518;50.930;5.344;2022-09-17T04:53:44;6.83;;;1.90;;
12900;SDS011;6518;50.930;5.344;2022-09-17T04:56:11;9.13;;;1.90;;
12900;SDS011;6518;50.930;5.344;2022-09-17T04:58:38;5.97;;;1.93;;
12900;SDS011;6518;50.930;5.344;2022-09-17T05:01:05;11.03;;;2.80;;
12900;SDS011;6518;50.930;5.344;2022-09-17T05:03:33;8.63;;;2.13;;
12900;SDS011;6518;50.930;5.344;2022-09-17T05:06:00;9.10;;;2.03;;
12900;SDS011;6518;50.930;5.344;2022-09-17T05:08:27;8.03;;;2.20;;
12900;SDS011;6518;50.930;5.344;2022-09-17T05:10:54;11.40;;;1.97;;
12900;SDS011;6518;50.930;5.344;2022-09-17T05:13:20;11.70;;;2.00;;
12900;SDS011;6518;50.930;5.344;2022-09-17T05:15:48;10.80;;;2.07;;
12900;SDS011;6518;50.930;5.344;2022-09-17T05:18:14;8.63;;;1.93;;
12900;SDS011;6518;50.930;5.344;2022-09-17T05:20:43;11.10;;;2.10;;
12900;SDS011;6518;50.930;5.344;2022-09-17T05:23:09;10.00;;;2.57;;
12900;SDS011;6518;50.930;5.344;2022-09-17T05:25:36;10.67;;;2.50;;
12900;SDS011;6518;50.930;5.344;2022-09-17T05:28:03;12.47;;;2.33;;
12900;SDS011;6518;50.930;5.344;2022-09-17T05:30:30;10.13;;;2.23;;
12900;SDS011;6518;50.930;5.344;2022-09-17T05:32:58;17.03;;;2.63;;
12900;SDS011;6518;50.930;5.344;2022-09-17T05:35:26;11.87;;;2.40;;
12900;SDS011;6518;50.930;5.344;2022-09-17T05:37:56;4.77;;;1.83;;
12900;SDS011;6518;50.930;5.344;2022-09-17T05:40:24;11.13;;;2.30;;
12900;SDS011;6518;50.930;5.344;2022-09-17T05:42:51;10.40;;;2.77;;
12900;SDS011;6518;50.930;5.344;2022-09-17T05:45:22;9.87;;;2.13;;
12900;SDS011;6518;50.930;5.344;2022-09-17T05:47:52;13.70;;;2.63;;
12900;SDS011;6518;50.930;5.344;2022-09-17T05:50:20;11.03;;;2.00;;
12900;SDS011;6518;50.930;5.344;2022-09-17T05:52:46;8.33;;;2.10;;
12900;SDS011;6518;50.930;5.344;2022-09-17T05:55:15;9.93;;;2.37;;
12900;SDS011;6518;50.930;5.344;2022-09-17T05:57:41;11.40;;;2.37;;
12900;SDS011;6518;50.930;5.344;2022-09-17T06:00:09;8.87;;;2.20;;
12900;SDS011;6518;50.930;5.344;2022-09-17T06:02:36;8.57;;;1.80;;
12900;SDS011;6518;50.930;5.344;2022-09-17T06:05:04;8.63;;;2.00;;
12900;SDS011;6518;50.930;5.344;2022-09-17T06:07:33;6.97;;;1.90;;
12900;SDS011;6518;50.930;5.344;2022-09-17T06:10:00;13.20;;;2.83;;
12900;SDS011;6518;50.930;5.344;2022-09-17T06:12:29;12.47;;;2.20;;
12900;SDS011;6518;50.930;5.344;2022-09-17T06:14:55;9.33;;;2.17;;
12900;SDS011;6518;50.930;5.344;2022-09-17T06:17:22;12.63;;;2.30;;
12900;SDS011;6518;50.930;5.344;2022-09-17T06:19:50;8.93;;;2.27;;
12900;SDS011;6518;50.930;5.344;2022-09-17T06:22:17;10.23;;;2.30;;
12900;SDS011;6518;50.930;5.344;2022-09-17T06:24:45;15.23;;;2.53;;
12900;SDS011;6518;50.930;5.344;2022-09-17T06:27:12;7.83;;;1.97;;
12900;SDS011;6518;50.930;5.344;2022-09-17T06:29:40;12.13;;;2.30;;
12900;SDS011;6518;50.930;5.344;2022-09-17T06:32:07;7.53;;;2.30;;
12900;SDS011;6518;50.930;5.344;2022-09-17T06:34:36;13.33;;;2.43;;
12900;SDS011;6518;50.930;5.344;2022-09-17T06:37:04;7.73;;;2.00;;
12900;SDS011;6518;50.930;5.344;2022-09-17T06:39:31;11.27;;;2.57;;
12900;SDS011;6518;50.930;5.344;2022-09-17T06:41:58;8.53;;;2.40;;
12900;SDS011;6518;50.930;5.344;2022-09-17T06:44:25;12.80;;;2.57;;
12900;SDS011;6518;50.930;5.344;2022-09-17T06:46:53;12.00;;;2.77;;
12900;SDS011;6518;50.930;5.344;2022-09-17T06:49:20;13.27;;;2.40;;
12900;SDS011;6518;50.930;5.344;2022-09-17T06:51:48;8.90;;;2.53;;
12900;SDS011;6518;50.930;5.344;2022-09-17T06:54:15;10.20;;;2.27;;
12900;SDS011;6518;50.930;5.344;2022-09-17T06:56:42;14.07;;;2.73;;
12900;SDS011;6518;50.930;5.344;2022-09-17T06:59:11;11.80;;;2.30;;
12900;SDS011;6518;50.930;5.344;2022-09-17T07:01:38;12.10;;;2.40;;
12900;SDS011;6518;50.930;5.344;2022-09-17T07:04:07;16.47;;;2.60;;
12900;SDS011;6518;50.930;5.344;2022-09-17T07:06:33;8.50;;;2.10;;
12900;SDS011;6518;50.930;5.344;2022-09-17T07:09:01;8.90;;;2.00;;
12900;SDS011;6518;50.930;5.344;2022-09-17T07:11:28;9.50;;;2.30;;
12900;SDS011;6518;50.930;5.344;2022-09-17T07:13:55;10.23;;;2.13;;
12900;SDS011;6518;50.930;5.344;2022-09-17T07:16:22;11.23;;;2.20;;
12900;SDS011;6518;50.930;5.344;2022-09-17T07:18:50;10.37;;;2.10;;
12900;SDS011;6518;50.930;5.344;2022-09-17T07:21:19;11.37;;;2.47;;
12900;SDS011;6518;50.930;5.344;2022-09-17T07:23:45;7.57;;;2.30;;
12900;SDS011;6518;50.930;5.344;2022-09-17T07:26:13;11.10;;;2.30;;
12900;SDS011;6518;50.930;5.344;2022-09-17T07:28:41;10.23;;;2.20;;
12900;SDS011;6518;50.930;5.344;2022-09-17T07:31:09;10.50;;;2.33;;
12900;SDS011;6518;50.930;5.344;2022-09-17T07:33:37;12.17;;;2.17;;
12900;SDS011;6518;50.930;5.344;2022-09-17T07:36:05;8.87;;;2.20;;
12900;SDS011;6518;50.930;5.344;2022-09-17T07:38:34;9.37;;;1.67;;
12900;SDS011;6518;50.930;5.344;2022-09-17T07:41:03;8.50;;;2.10;;
12900;SDS011;6518;50.930;5.344;2022-09-17T07:43:32;10.67;;;1.83;;
12900;SDS011;6518;50.930;5.344;2022-09-17T07:46:01;7.93;;;1.63;;
12900;SDS011;6518;50.930;5.344;2022-09-17T07:48:29;7.10;;;1.90;;
12900;SDS011;6518;50.930;5.344;2022-09-17T07:50:57;8.77;;;2.23;;
12900;SDS011;6518;50.930;5.344;2022-09-17T07:53:23;8.70;;;1.83;;
12900;SDS011;6518;50.930;5.344;2022-09-17T07:55:52;4.87;;;1.50;;
12900;SDS011;6518;50.930;5.344;2022-09-17T07:58:20;6.80;;;1.67;;
12900;SDS011;6518;50.930;5.344;2022-09-17T08:00:48;7.17;;;2.00;;
12900;SDS011;6518;50.930;5.344;2022-09-17T08:03:15;6.03;;;1.50;;
12900;SDS011;6518;50.930;5.344;2022-09-17T08:05:42;5.63;;;1.90;;
12900;SDS011;6518;50.930;5.344;2022-09-17T08:08:09;6.80;;;1.67;;
12900;SDS011;6518;50.930;5.344;2022-09-17T08:10:37;7.83;;;2.20;;
12900;SDS011;6518;50.930;5.344;2022-09-17T08:13:05;6.43;;;1.70;;
12900;SDS011;6518;50.930;5.344;2022-09-17T08:15:32;9.93;;;1.43;;
12900;SDS011;6518;50.930;5.344;2022-09-17T08:17:59;9.60;;;1.70;;
12900;SDS011;6518;50.930;5.344;2022-09-17T08:20:26;6.87;;;1.60;;
12900;SDS011;6518;50.930;5.344;2022-09-17T08:23:02;5.37;;;1.70;;
12900;SDS011;6518;50.930;5.344;2022-09-17T08:25:28;7.77;;;1.77;;
12900;SDS011;6518;50.930;5.344;2022-09-17T08:27:55;7.37;;;1.70;;
12900;SDS011;6518;50.930;5.344;2022-09-17T08:30:24;5.97;;;1.60;;
12900;SDS011;6518;50.930;5.344;2022-09-17T08:32:51;7.37;;;2.30;;
12900;SDS011;6518;50.930;5.344;2022-09-17T08:35:21;4.00;;;1.50;;
12900;SDS011;6518;50.930;5.344;2022-09-17T08:37:50;5.90;;;1.57;;
12900;SDS011;6518;50.930;5.344;2022-09-17T08:40:19;6.70;;;1.43;;
12900;SDS011;6518;50.930;5.344;2022-09-17T08:42:50;6.20;;;1.30;;
12900;SDS011;6518;50.930;5.344;2022-09-17T08:45:21;9.57;;;1.83;;
12900;SDS011;6518;50.930;5.344;2022-09-17T08:47:50;8.10;;;1.80;;
12900;SDS011;6518;50.930;5.344;2022-09-17T08:50:23;6.87;;;1.73;;
12900;SDS011;6518;50.930;5.344;2022-09-17T08:55:57;5.23;;;1.53;;
12900;SDS011;6518;50.930;5.344;2022-09-17T08:58:38;5.07;;;1.70;;
12900;SDS011;6518;50.930;5.344;2022-09-17T09:01:24;8.60;;;1.90;;
12900;SDS011;6518;50.930;5.344;2022-09-17T09:06:52;4.03;;;1.30;;
12900;SDS011;6518;50.930;5.344;2022-09-17T09:09:24;5.23;;;1.50;;
12900;SDS011;6518;50.930;5.344;2022-09-17T09:11:55;8.73;;;1.90;;
12900;SDS011;6518;50.930;5.344;2022-09-17T09:14:30;4.43;;;1.70;;
12900;SDS011;6518;50.930;5.344;2022-09-17T09:17:04;9.87;;;1.90;;
12900;SDS011;6518;50.930;5.344;2022-09-17T09:19:37;7.07;;;1.40;;
12900;SDS011;6518;50.930;5.344;2022-09-17T09:22:13;6.83;;;1.80;;
12900;SDS011;6518;50.930;5.344;2022-09-17T09:24:52;6.07;;;1.40;;
12900;SDS011;6518;50.930;5.344;2022-09-17T09:27:31;7.03;;;1.60;;
12900;SDS011;6518;50.930;5.344;2022-09-17T09:30:05;6.37;;;1.60;;
12900;SDS011;6518;50.930;5.344;2022-09-17T09:32:51;5.27;;;1.70;;
12900;SDS011;6518;50.930;5.344;2022-09-17T09:35:27;5.03;;;1.40;;
12900;SDS011;6518;50.930;5.344;2022-09-17T09:37:56;5.90;;;1.70;;
12900;SDS011;6518;50.930;5.344;2022-09-17T09:40:36;6.00;;;1.80;;
12900;SDS011;6518;50.930;5.344;2022-09-17T09:43:10;5.27;;;1.47;;
12900;SDS011;6518;50.930;5.344;2022-09-17T09:45:46;3.33;;;1.40;;
12900;SDS011;6518;50.930;5.344;2022-09-17T09:48:34;5.10;;;1.70;;
12900;SDS011;6518;50.930;5.344;2022-09-17T09:51:13;5.80;;;1.50;;
12900;SDS011;6518;50.930;5.344;2022-09-17T09:53:50;4.63;;;1.80;;
12900;SDS011;6518;50.930;5.344;2022-09-17T09:56:36;5.73;;;1.57;;
12900;SDS011;6518;50.930;5.344;2022-09-17T09:59:14;7.40;;;1.38;;
12900;SDS011;6518;50.930;5.344;2022-09-17T10:01:42;5.03;;;1.50;;
12900;SDS011;6518;50.930;5.344;2022-09-17T10:04:20;6.80;;;2.27;;
12900;SDS011;6518;50.930;5.344;2022-09-17T10:06:49;6.33;;;1.33;;
12900;SDS011;6518;50.930;5.344;2022-09-17T10:09:18;4.10;;;1.40;;
12900;SDS011;6518;50.930;5.344;2022-09-17T10:11:58;5.17;;;1.63;;
12900;SDS011;6518;50.930;5.344;2022-09-17T10:14:27;5.77;;;1.70;;
12900;SDS011;6518;50.930;5.344;2022-09-17T10:17:12;5.90;;;1.43;;
12900;SDS011;6518;50.930;5.344;2022-09-17T10:20:10;5.77;;;1.60;;
12900;SDS011;6518;50.930;5.344;2022-09-17T10:22:40;4.80;;;1.37;;
12900;SDS011;6518;50.930;5.344;2022-09-17T10:25:28;4.20;;;0.90;;
12900;SDS011;6518;50.930;5.344;2022-09-17T10:27:57;5.90;;;1.23;;
12900;SDS011;6518;50.930;5.344;2022-09-17T10:30:27;4.37;;;1.40;;
12900;SDS011;6518;50.930;5.344;2022-09-17T10:33:11;5.63;;;1.63;;
12900;SDS011;6518;50.930;5.344;2022-09-17T10:35:54;7.03;;;1.40;;
12900;SDS011;6518;50.930;5.344;2022-09-17T10:38:28;6.30;;;1.37;;
12900;SDS011;6518;50.930;5.344;2022-09-17T10:43:50;6.07;;;1.40;;
12900;SDS011;6518;50.930;5.344;2022-09-17T10:46:18;5.47;;;1.37;;
12900;SDS011;6518;50.930;5.344;2022-09-17T10:48:55;6.17;;;1.60;;
12900;SDS011;6518;50.930;5.344;2022-09-17T10:51:33;5.00;;;1.43;;
12900;SDS011;6518;50.930;5.344;2022-09-17T10:54:11;4.83;;;1.50;;
12900;SDS011;6518;50.930;5.344;2022-09-17T10:56:50;5.57;;;1.80;;
12900;SDS011;6518;50.930;5.344;2022-09-17T11:02:25;7.00;;;1.80;;
12900;SDS011;6518;50.930;5.344;2022-09-17T11:05:19;7.53;;;1.83;;
12900;SDS011;6518;50.930;5.344;2022-09-17T11:08:11;7.13;;;1.70;;
12900;SDS011;6518;50.930;5.344;2022-09-17T11:10:45;4.10;;;1.70;;
12900;SDS011;6518;50.930;5.344;2022-09-17T11:13:20;7.07;;;2.00;;
12900;SDS011;6518;50.930;5.344;2022-09-17T11:16:01;6.00;;;1.73;;
12900;SDS011;6518;50.930;5.344;2022-09-17T11:18:40;4.05;;;1.30;;
12900;SDS011;6518;50.930;5.344;2022-09-17T11:21:14;5.10;;;1.33;;
12900;SDS011;6518;50.930;5.344;2022-09-17T11:24:00;5.53;;;1.47;;
12900;SDS011;6518;50.930;5.344;2022-09-17T11:26:38;4.55;;;1.58;;
12900;SDS011;6518;50.930;5.344;2022-09-17T11:29:14;3.73;;;1.50;;
12900;SDS011;6518;50.930;5.344;2022-09-17T11:31:56;3.75;;;1.02;;
12900;SDS011;6518;50.930;5.344;2022-09-17T11:34:29;2.42;;;0.60;;
12900;SDS011;6518;50.930;5.344;2022-09-17T11:37:03;4.67;;;0.90;;
12900;SDS011;6518;50.930;5.344;2022-09-17T11:39:40;3.30;;;0.75;;
12900;SDS011;6518;50.930;5.344;2022-09-17T11:42:13;2.15;;;0.60;;
12900;SDS011;6518;50.930;5.344;2022-09-17T11:44:46;5.90;;;0.80;;
12900;SDS011;6518;50.930;5.344;2022-09-17T11:47:17;1.97;;;0.77;;
12900;SDS011;6518;50.930;5.344;2022-09-17T11:49:49;2.90;;;0.50;;
12900;SDS011;6518;50.930;5.344;2022-09-17T11:52:22;5.13;;;0.73;;
12900;SDS011;6518;50.930;5.344;2022-09-17T11:54:54;3.87;;;0.90;;
12900;SDS011;6518;50.930;5.344;2022-09-17T11:57:28;3.87;;;1.03;;
12900;SDS011;6518;50.930;5.344;2022-09-17T12:00:00;3.63;;;0.80;;
12900;SDS011;6518;50.930;5.344;2022-09-17T12:02:36;2.43;;;0.63;;
12900;SDS011;6518;50.930;5.344;2022-09-17T12:05:14;3.33;;;0.90;;
12900;SDS011;6518;50.930;5.344;2022-09-17T12:07:46;4.18;;;0.90;;
12900;SDS011;6518;50.930;5.344;2022-09-17T12:10:23;2.07;;;0.70;;
12900;SDS011;6518;50.930;5.344;2022-09-17T12:13:01;2.92;;;0.80;;
12900;SDS011;6518;50.930;5.344;2022-09-17T12:15:38;2.83;;;0.70;;
12900;SDS011;6518;50.930;5.344;2022-09-17T12:18:16;3.47;;;0.93;;
12900;SDS011;6518;50.930;5.344;2022-09-17T12:20:48;2.83;;;0.98;;
12900;SDS011;6518;50.930;5.344;2022-09-17T12:23:20;3.10;;;0.70;;
12900;SDS011;6518;50.930;5.344;2022-09-17T12:25:59;2.17;;;0.63;;
12900;SDS011;6518;50.930;5.344;2022-09-17T12:28:37;3.50;;;1.10;;
12900;SDS011;6518;50.930;5.344;2022-09-17T12:31:09;3.08;;;0.70;;
12900;SDS011;6518;50.930;5.344;2022-09-17T12:33:42;3.03;;;0.90;;
12900;SDS011;6518;50.930;5.344;2022-09-17T12:36:22;4.47;;;0.80;;
12900;SDS011;6518;50.930;5.344;2022-09-17T12:42:02;1.50;;;0.67;;
12900;SDS011;6518;50.930;5.344;2022-09-17T12:44:44;3.00;;;0.70;;
12900;SDS011;6518;50.930;5.344;2022-09-17T12:50:30;3.20;;;0.80;;
12900;SDS011;6518;50.930;5.344;2022-09-17T12:53:09;3.07;;;0.70;;
12900;SDS011;6518;50.930;5.344;2022-09-17T12:55:49;2.70;;;0.70;;
12900;SDS011;6518;50.930;5.344;2022-09-17T12:58:32;2.73;;;0.90;;
12900;SDS011;6518;50.930;5.344;2022-09-17T13:01:11;4.47;;;1.03;;
12900;SDS011;6518;50.930;5.344;2022-09-17T13:03:42;3.87;;;1.00;;
12900;SDS011;6518;50.930;5.344;2022-09-17T13:06:27;3.73;;;1.03;;
12900;SDS011;6518;50.930;5.344;2022-09-17T13:09:23;6.03;;;1.77;;
12900;SDS011;6518;50.930;5.344;2022-09-17T13:12:21;4.53;;;1.23;;
12900;SDS011;6518;50.930;5.344;2022-09-17T13:15:01;5.60;;;1.10;;
12900;SDS011;6518;50.930;5.344;2022-09-17T13:17:45;4.90;;;1.53;;
12900;SDS011;6518;50.930;5.344;2022-09-17T13:20:20;3.47;;;1.00;;
12900;SDS011;6518;50.930;5.344;2022-09-17T13:22:51;2.77;;;0.97;;
12900;SDS011;6518;50.930;5.344;2022-09-17T13:25:21;5.10;;;1.17;;
12900;SDS011;6518;50.930;5.344;2022-09-17T13:27:48;6.37;;;1.50;;
12900;SDS011;6518;50.930;5.344;2022-09-17T13:30:18;6.40;;;1.48;;
12900;SDS011;6518;50.930;5.344;2022-09-17T13:32:52;4.47;;;1.30;;
12900;SDS011;6518;50.930;5.344;2022-09-17T13:38:15;3.13;;;1.10;;
12900;SDS011;6518;50.930;5.344;2022-09-17T13:40:43;4.45;;;1.50;;
12900;SDS011;6518;50.930;5.344;2022-09-17T13:43:11;4.43;;;1.35;;
12900;SDS011;6518;50.930;5.344;2022-09-17T13:48:47;5.97;;;1.70;;
12900;SDS011;6518;50.930;5.344;2022-09-17T13:54:14;4.80;;;1.20;;
12900;SDS011;6518;50.930;5.344;2022-09-17T13:56:43;7.20;;;1.40;;
12900;SDS011;6518;50.930;5.344;2022-09-17T13:59:12;6.40;;;1.80;;
12900;SDS011;6518;50.930;5.344;2022-09-17T14:01:56;6.27;;;1.80;;
12900;SDS011;6518;50.930;5.344;2022-09-17T14:04:44;5.40;;;1.50;;
12900;SDS011;6518;50.930;5.344;2022-09-17T14:07:32;4.97;;;1.47;;
12900;SDS011;6518;50.930;5.344;2022-09-17T14:10:01;5.33;;;1.30;;
12900;SDS011;6518;50.930;5.344;2022-09-17T14:16:22;5.40;;;1.27;;
12900;SDS011;6518;50.930;5.344;2022-09-17T14:19:19;7.70;;;1.50;;
12900;SDS011;6518;50.930;5.344;2022-09-17T14:21:55;5.43;;;1.53;;
12900;SDS011;6518;50.930;5.344;2022-09-17T14:24:25;7.07;;;1.63;;
12900;SDS011;6518;50.930;5.344;2022-09-17T14:27:02;8.07;;;2.23;;
12900;SDS011;6518;50.930;5.344;2022-09-17T14:29:49;6.13;;;1.30;;
12900;SDS011;6518;50.930;5.344;2022-09-17T14:32:34;5.43;;;1.33;;
12900;SDS011;6518;50.930;5.344;2022-09-17T14:35:13;5.87;;;1.50;;
12900;SDS011;6518;50.930;5.344;2022-09-17T14:37:48;8.13;;;2.03;;
12900;SDS011;6518;50.930;5.344;2022-09-17T14:40:20;6.37;;;1.60;;
12900;SDS011;6518;50.930;5.344;2022-09-17T14:42:48;6.17;;;1.60;;
12900;SDS011;6518;50.930;5.344;2022-09-17T14:45:20;5.20;;;1.60;;
12900;SDS011;6518;50.930;5.344;2022-09-17T14:50:44;5.03;;;1.40;;
12900;SDS011;6518;50.930;5.344;2022-09-17T14:53:12;9.87;;;2.23;;
12900;SDS011;6518;50.930;5.344;2022-09-17T14:55:41;7.97;;;1.53;;
12900;SDS011;6518;50.930;5.344;2022-09-17T14:58:23;6.30;;;1.50;;
12900;SDS011;6518;50.930;5.344;2022-09-17T15:00:54;6.00;;;1.63;;
12900;SDS011;6518;50.930;5.344;2022-09-17T15:03:21;8.00;;;1.77;;
12900;SDS011;6518;50.930;5.344;2022-09-17T15:05:51;4.90;;;1.23;;
12900;SDS011;6518;50.930;5.344;2022-09-17T15:08:19;6.57;;;1.58;;
12900;SDS011;6518;50.930;5.344;2022-09-17T15:10:47;6.43;;;1.90;;
12900;SDS011;6518;50.930;5.344;2022-09-17T15:13:17;6.27;;;1.70;;
12900;SDS011;6518;50.930;5.344;2022-09-17T15:15:50;6.43;;;1.77;;
12900;SDS011;6518;50.930;5.344;2022-09-17T15:18:19;8.37;;;1.93;;
12900;SDS011;6518;50.930;5.344;2022-09-17T15:20:47;5.00;;;1.30;;
12900;SDS011;6518;50.930;5.344;2022-09-17T15:23:17;5.30;;;1.50;;
12900;SDS011;6518;50.930;5.344;2022-09-17T15:25:49;6.45;;;1.60;;
12900;SDS011;6518;50.930;5.344;2022-09-17T15:28:21;8.07;;;1.87;;
12900;SDS011;6518;50.930;5.344;2022-09-17T15:30:53;4.63;;;1.50;;
12900;SDS011;6518;50.930;5.344;2022-09-17T15:33:20;6.80;;;2.00;;
12900;SDS011;6518;50.930;5.344;2022-09-17T15:35:59;6.07;;;1.50;;
12900;SDS011;6518;50.930;5.344;2022-09-17T15:38:33;5.97;;;1.40;;
12900;SDS011;6518;50.930;5.344;2022-09-17T15:41:24;5.37;;;1.60;;
12900;SDS011;6518;50.930;5.344;2022-09-17T15:44:14;7.73;;;2.13;;
12900;SDS011;6518;50.930;5.344;2022-09-17T15:46:48;3.20;;;1.40;;
12900;SDS011;6518;50.930;5.344;2022-09-17T15:49:29;10.57;;;2.13;;
12900;SDS011;6518;50.930;5.344;2022-09-17T15:54:52;5.40;;;1.97;;
12900;SDS011;6518;50.930;5.344;2022-09-17T15:57:19;8.17;;;2.00;;
12900;SDS011;6518;50.930;5.344;2022-09-17T15:59:47;7.10;;;1.40;;
12900;SDS011;6518;50.930;5.344;2022-09-17T16:02:23;5.70;;;1.40;;
12900;SDS011;6518;50.930;5.344;2022-09-17T16:04:56;5.40;;;1.53;;
12900;SDS011;6518;50.930;5.344;2022-09-17T16:08:15;6.17;;;1.83;;
12900;SDS011;6518;50.930;5.344;2022-09-17T16:10:45;5.90;;;1.97;;
12900;SDS011;6518;50.930;5.344;2022-09-17T16:13:12;6.33;;;1.80;;